D/T METAR WX W/SPE G/SPE TEMP DEWP FEEL
31/01/23 13:50 EGLL 311350Z AUTO 28012KT 9999 BKN031 OVC039 12/06 Q1023 13.8mph 12°C 6°C 11.6°C
31/01/23 13:20 EGLL 311320Z AUTO 27012KT 9999 SCT026 SCT030 BKN037 12/07 Q1023 13.8mph 12°C 7°C 12.0°C
31/01/23 12:20 EGLL 311220Z AUTO 26009KT 9999 BKN019 OVC033 11/07 Q1023 10.4mph 11°C 7°C 11.0°C
31/01/23 07:50 EGLL 310750Z AUTO 24013KT 9999 OVC014 07/04 Q1024 TEMPO BKN016 15.0mph 7°C 4°C 6.0°C
30/01/23 22:20 EGLL 302220Z AUTO 25007KT 9999 NCD 03/01 Q1028 NOSIG 8.1mph 3°C 1°C 1.1°C
30/01/23 12:50 EGLL 301250Z AUTO 30010KT 9999 NCD 09/02 Q1026 11.5mph 9°C 2°C 7.4°C
30/01/23 12:20 EGLL 301220Z AUTO 29010KT 9999 NCD 09/02 Q1026 11.5mph 9°C 2°C 7.4°C
30/01/23 11:20 EGLL 301120Z AUTO 29009KT 260V320 9999 NCD 08/02 Q1026 NOSIG 10.4mph 8°C 2°C 6.4°C
30/01/23 10:50 EGLL 301050Z AUTO 29008KT 9999 NCD 08/02 Q1025 NOSIG 9.2mph 8°C 2°C 6.4°C
30/01/23 08:20 EGLL 300820Z AUTO 29007KT 9999 NCD 06/02 Q1024 NOSIG 8.1mph 6°C 2°C 4.4°C
30/01/23 06:50 EGLL 300650Z AUTO 30010KT 9999 NCD 07/02 Q1023 11.5mph 7°C 2°C 5.4°C
09/01/23 06:20 EGLL 090620Z AUTO 25012KT 9999 NCD 06/04 Q0995 13.8mph 6°C 4°C 5.0°C
09/01/23 05:20 EGLL 090520Z AUTO 25009KT 9999 NCD 06/04 Q0994 10.4mph 6°C 4°C 5.0°C
09/01/23 04:20 EGLL 090420Z AUTO 27008KT 9999 NCD 06/04 Q0994 9.2mph 6°C 4°C 5.0°C
09/01/23 03:50 EGLL 090350Z AUTO 26009KT 9999 NCD 06/04 Q0993 10.4mph 6°C 4°C 5.0°C
09/01/23 03:20 EGLL 090320Z AUTO 26012KT 9999 NCD 06/04 Q0993 13.8mph 6°C 4°C 5.0°C
09/01/23 02:50 EGLL 090250Z AUTO 26012KT 9999 NCD 06/04 Q0992 NOSIG 13.8mph 6°C 4°C 5.0°C
09/01/23 02:20 EGLL 090220Z AUTO 27013KT 9999 FEW048 07/05 Q0991 NOSIG 15.0mph 7°C 5°C 6.3°C
09/01/23 01:20 EGLL 090120Z AUTO 27011KT 9999 FEW021 07/05 Q0990 TEMPO BKN012 12.7mph 7°C 5°C 6.3°C
09/01/23 00:50 EGLL 090050Z AUTO 26009KT 9999 SCT011 BKN017 BKN021 07/05 Q0990 TEMPO BKN012 10.4mph 7°C 5°C 6.3°C
09/01/23 00:20 EGLL 090020Z AUTO 24008KT 9999 SCT011 BKN017 OVC033 07/05 Q0989 TEMPO BKN012 9.2mph 7°C 5°C 6.3°C
09/01/23 00:20 EGLL 090020Z AUTO 24008KT 9999 SCT011 BKN017 OVC033 07/05 Q0989 9.2mph 7°C 5°C 6.3°C
08/01/23 23:20 EGLL 082320Z AUTO 20007KT 180V240 9999 BKN032/// BKN043/// //////TCU 07/05 Q0988 8.1mph 7°C 5°C 6.3°C
08/01/23 22:50 EGLL 082250Z AUTO 20009KT 160V270 9999 BKN036/// //////TCU 07/05 Q0988 10.4mph 7°C 5°C 6.3°C
08/01/23 22:50 EGLL 082250Z AUTO 20009KT 160V270 9999 BKN036/// //////TCU 07/05 Q0988 NOSIG 10.4mph 7°C 5°C 6.3°C
08/01/23 22:20 EGLL 082220Z AUTO 18008KT 140V240 9999 -RA SCT039 06/04 Q0988 TEMPO SHRA -RA 9.2mph 6°C 4°C 5.0°C
08/01/23 20:20 EGLL 082020Z AUTO 21008KT 9999 NCD 05/03 Q0989 TEMPO SHRA 9.2mph 5°C 3°C 3.7°C
08/01/23 19:50 EGLL 081950Z AUTO 21010KT 9999 NCD 05/04 Q0990 11.5mph 5°C 4°C 4.0°C
08/01/23 18:50 EGLL 081850Z AUTO 22007KT 190V260 9999 NCD 05/04 Q0990 8.1mph 5°C 4°C 4.0°C
08/01/23 18:20 EGLL 081820Z AUTO 25010KT 9999 FEW025 06/04 Q0990 11.5mph 6°C 4°C 5.0°C
08/01/23 17:50 EGLL 081750Z AUTO 25012KT 9999 FEW024 06/04 Q0990 NOSIG 13.8mph 6°C 4°C 5.0°C
08/01/23 17:20 EGLL 081720Z AUTO 26012KT 9999 FEW021/// SCT030/// BKN046/// //////CB 07/04 Q0990 NOSIG 13.8mph 7°C 4°C 6.0°C
08/01/23 16:50 EGLL 081650Z AUTO 19014KT 170V260 6000 -RA FEW015/// SCT019/// BKN026/// //////CB 07/05 Q0989 NOSIG -RA 16.1mph 7°C 5°C 6.3°C
08/01/23 16:20 EGLL 081620Z AUTO 18011KT 150V230 9999 -RA SCT019/// BKN035/// //////CB 07/05 Q0989 -RA 12.7mph 7°C 5°C 6.3°C
08/01/23 15:50 EGLL 081550Z AUTO 18012KT 160V230 9999 BKN037 BKN046 07/05 Q0989 13.8mph 7°C 5°C 6.3°C
08/01/23 15:20 EGLL 081520Z AUTO 19011KT 170V240 9999 -RA //////TCU 07/05 Q0989 NOSIG -RA 12.7mph 7°C 5°C 6.3°C
08/01/23 14:20 EGLL 081420Z AUTO 21014G24KT 9999 -RA FEW018/// BKN031/// //////CB 08/06 Q0989 NOSIG -RA 16.1mph 27.6mph 8°C 6°C 7.6°C
08/01/23 13:50 EGLL 081350Z 21013KT 9999 -SHRA SCT018CB BKN024 BKN030 09/07 Q0990 TEMPO 4000 SHRA -SHRA 15.0mph 9°C 7°C 9.0°C
08/01/23 13:20 EGLL 081320Z AUTO 18010KT 8000 -RA BKN020/// BKN028/// //////CB 08/07 Q0990 -RA 11.5mph 8°C 7°C 8.0°C
08/01/23 12:50 EGLL 081250Z 21010KT 9999 -SHRA FEW016TCU BKN030 BKN040 08/06 Q0991 RESHRA -SHRA 11.5mph 8°C 6°C 7.6°C
08/01/23 12:20 EGLL 081220Z 22013KT 9999 -SHRA SCT014CB BKN030 BKN037 07/06 Q0992 RESHRA TEMPO SHRA -SHRA 15.0mph 7°C 6°C 6.6°C
08/01/23 11:20 EGLL 081120Z AUTO 22012G23KT 9999 -RA BKN018/// BKN026/// OVC048/// //////CB 09/07 Q0992 TEMPO SHRA -RA 13.8mph 26.5mph 9°C 7°C 9.0°C
08/01/23 10:50 EGLL 081050Z AUTO 20014G24KT 170V250 9999 -RA BKN016/// OVC042/// //////CB 10/07 Q0993 RERA TEMPO SHRA -RA 16.1mph 27.6mph 10°C 7°C 10.0°C
08/01/23 09:50 EGLL 080950Z AUTO 19011G21KT 9999 NCD 08/06 Q0993 TEMPO SHRA 12.7mph 24.2mph 8°C 6°C 7.6°C
08/01/23 09:50 EGLL 080950Z AUTO 19011G21KT 9999 NCD 08/06 Q0993 12.7mph 24.2mph 8°C 6°C 7.6°C
08/01/23 09:20 EGLL 080920Z AUTO 18009G19KT 160V230 9999 NCD 08/06 Q0994 10.4mph 21.9mph 8°C 6°C 7.6°C
08/01/23 08:20 EGLL 080820Z AUTO 20009KT 170V230 9999 FEW034 07/05 Q0994 TEMPO SHRA 10.4mph 7°C 5°C 6.3°C
08/01/23 07:50 EGLL 080750Z AUTO 19011KT 9999 BKN033 BKN040 07/05 Q0995 12.7mph 7°C 5°C 6.3°C
08/01/23 07:20 EGLL 080720Z AUTO 20012KT 9999 -RA BKN042/// //////CB 07/05 Q0995 NOSIG -RA 13.8mph 7°C 5°C 6.3°C
08/01/23 06:50 EGLL 080650Z AUTO 18011G22KT 160V240 9999 //////TCU 07/05 Q0995 NOSIG 12.7mph 25.3mph 7°C 5°C 6.3°C
08/01/23 06:50 EGLL 080650Z AUTO 18011G22KT 160V240 9999 //////TCU 07/05 Q0995 12.7mph 25.3mph 7°C 5°C 6.3°C
08/01/23 05:50 EGLL 080550Z AUTO 20009KT 9999 NCD 07/05 Q0995 TEMPO SHRA 10.4mph 7°C 5°C 6.3°C
08/01/23 05:20 EGLL 080520Z AUTO 20012KT 180V250 9999 BKN044/// //////TCU 07/05 Q0996 TEMPO SHRA 13.8mph 7°C 5°C 6.3°C
08/01/23 05:20 EGLL 080520Z AUTO 20012KT 180V250 9999 BKN044/// //////TCU 07/05 Q0996 13.8mph 7°C 5°C 6.3°C
08/01/23 04:50 EGLL 080450Z AUTO 20010KT 9999 //////CB 07/05 Q0996 TEMPO SHRA 11.5mph 7°C 5°C 6.3°C
08/01/23 04:20 EGLL 080420Z AUTO 21010KT 9999 -RA SCT041/// //////CB 08/05 Q0996 -RA 11.5mph 8°C 5°C 7.3°C
08/01/23 03:20 EGLL 080320Z AUTO 19011KT 9999 SCT041/// //////CB 08/05 Q0996 TEMPO SHRA 12.7mph 8°C 5°C 7.3°C
08/01/23 02:50 EGLL 080250Z AUTO 20012KT 9999 SCT032 08/05 Q0996 TEMPO SHRA 13.8mph 8°C 5°C 7.3°C
08/01/23 02:20 EGLL 080220Z AUTO 21010KT 9999 BKN021/// BKN036/// //////CB 08/06 Q0996 TEMPO SHRA 11.5mph 8°C 6°C 7.6°C
08/01/23 01:50 EGLL 080150Z AUTO 21009KT 9999 -RA SCT029/// BKN034/// //////TCU 08/06 Q0996 TEMPO SHRA -RA 10.4mph 8°C 6°C 7.6°C
08/01/23 00:50 EGLL 080050Z AUTO 19009KT 9999 SCT028 BKN035 BKN043 08/05 Q0997 TEMPO SHRA 10.4mph 8°C 5°C 7.3°C
08/01/23 00:20 EGLL 080020Z AUTO 20009KT 9999 FEW027 BKN031 BKN038 08/05 Q0997 TEMPO SHRA 10.4mph 8°C 5°C 7.3°C
07/01/23 23:50 EGLL 072350Z AUTO 19008KT 9999 SCT030 SCT038 08/05 Q0997 9.2mph 8°C 5°C 7.3°C
07/01/23 23:20 EGLL 072320Z AUTO 20008KT 9999 BKN029 BKN037 08/05 Q0997 9.2mph 8°C 5°C 7.3°C
07/01/23 22:50 EGLL 072250Z AUTO 20012KT 180V240 9999 NCD 08/05 Q0997 13.8mph 8°C 5°C 7.3°C
07/01/23 21:50 EGLL 072150Z AUTO 21011KT 9999 FEW037 08/05 Q0997 NOSIG 12.7mph 8°C 5°C 7.3°C
07/01/23 20:50 EGLL 072050Z AUTO 21012KT 9999 NCD 07/04 Q0997 NOSIG 13.8mph 7°C 4°C 6.0°C
07/01/23 20:20 EGLL 072020Z AUTO 21011KT 9999 NCD 08/05 Q0997 NOSIG 12.7mph 8°C 5°C 7.3°C
07/01/23 19:20 EGLL 071920Z AUTO 22012G23KT 9999 -RA SCT020/// BKN025/// BKN030/// //////TCU 08/05 Q0997 NOSIG -RA 13.8mph 26.5mph 8°C 5°C 7.3°C
07/01/23 18:50 EGLL 071850Z AUTO 22013KT 9999 SCT032/// SCT045/// //////CB 08/05 Q0997 NOSIG 15.0mph 8°C 5°C 7.3°C
07/01/23 18:20 EGLL 071820Z AUTO 23018KT 9999 NCD 08/04 Q0996 TEMPO SHRA 20.7mph 8°C 4°C 7.0°C
07/01/23 17:50 EGLL 071750Z 24025G36KT 9999 -RA FEW024CB SCT043 09/05 Q0996 RESHRA BECMG 23015G25KT -RA 28.8mph 41.4mph 9°C 5°C 8.3°C
07/01/23 17:20 EGLL 071720Z AUTO 22015KT 9999 NCD 10/07 Q0995 TEMPO SHRA 17.3mph 10°C 7°C 10.0°C
07/01/23 16:20 EGLL 071620Z AUTO 21011KT 9999 -RA SCT023/// BKN043/// //////CB 11/08 Q0995 TEMPO SHRA -RA 12.7mph 11°C 8°C 11.4°C
07/01/23 15:50 EGLL 071550Z AUTO 20012KT 9999 SCT018/// SCT022/// BKN030/// //////TCU 11/08 Q0996 TEMPO SHRA 13.8mph 11°C 8°C 11.4°C
07/01/23 15:20 EGLL 071520Z 21013KT 9999 -RA SCT018TCU BKN029 BKN038 11/09 Q0996 RESHRA TEMPO SHRA -RA 15.0mph 11°C 9°C 11.8°C
07/01/23 14:50 EGLL 071450Z AUTO 21013KT 9999 SCT014 BKN023 BKN031 11/09 Q0996 TEMPO SHRA 15.0mph 11°C 9°C 11.8°C
07/01/23 14:20 EGLL 071420Z 21014KT 9999 -RA FEW009 BKN013 11/10 Q0996 TEMPO SHRA -RA 16.1mph 11°C 10°C 12.3°C
07/01/23 13:50 EGLL 071350Z 19016G27KT 8000 -RA OVC008 10/09 Q0996 RERA REDZ NOSIG -RA 18.4mph 31.1mph 10°C 9°C 10.8°C
07/01/23 12:50 EGLL 071250Z AUTO 19015KT 9999 -RA BKN010 OVC014 10/09 Q0997 TEMPO RA -RA 17.3mph 10°C 9°C 10.8°C
07/01/23 12:20 EGLL 071220Z AUTO 19014KT 170V230 9999 -RA BKN011 OVC021 11/09 Q0998 -RA 16.1mph 11°C 9°C 11.8°C
07/01/23 11:50 EGLL 071150Z AUTO 20016G27KT 9999 -RA OVC013 11/09 Q0998 -RA 18.4mph 31.1mph 11°C 9°C 11.8°C
07/01/23 11:20 EGLL 071120Z AUTO 19015KT 9999 -RA BKN013 OVC017 10/09 Q0999 NOSIG -RA 17.3mph 10°C 9°C 10.8°C
07/01/23 10:50 EGLL 071050Z AUTO 19015KT 9999 -RA OVC010 10/09 Q0999 NOSIG -RA 17.3mph 10°C 9°C 10.8°C
07/01/23 10:20 EGLL 071020Z AUTO 19016G27KT 9999 -RA BKN011 OVC020 10/09 Q0999 -RA 18.4mph 31.1mph 10°C 9°C 10.8°C
07/01/23 09:50 EGLL 070950Z AUTO 19018KT 9999 -RA OVC011 10/08 Q1000 TEMPO RA -RA 20.7mph 10°C 8°C 10.4°C
07/01/23 09:20 EGLL 070920Z AUTO 18016KT 9999 -RA BKN012 OVC016 10/08 Q1000 TEMPO RA -RA 18.4mph 10°C 8°C 10.4°C
07/01/23 08:50 EGLL 070850Z AUTO 18019G30KT 9999 -RA BKN014 OVC019 10/08 Q1000 TEMPO RA -RA 21.9mph 34.5mph 10°C 8°C 10.4°C
07/01/23 08:20 EGLL 070820Z AUTO 18018KT 9999 -RA BKN017 OVC021 10/08 Q1001 TEMPO RA -RA 20.7mph 10°C 8°C 10.4°C
07/01/23 07:50 EGLL 070750Z AUTO 18020G32KT 9999 -RA OVC019/// //////TCU 11/07 Q1001 TEMPO RA -RA 23.0mph 36.8mph 11°C 7°C 11.0°C
07/01/23 07:20 EGLL 070720Z AUTO 18018KT 9999 BKN020 OVC027 11/07 Q1002 TEMPO RA BKN014 20.7mph 11°C 7°C 11.0°C
07/01/23 06:50 EGLL 070650Z AUTO 18018KT 9999 BKN020 OVC029 11/07 Q1002 TEMPO 19018G28KT 20.7mph 11°C 7°C 11.0°C
07/01/23 06:20 EGLL 070620Z AUTO 18017G27KT 9999 BKN020 OVC041 11/07 Q1003 19.6mph 31.1mph 11°C 7°C 11.0°C
07/01/23 05:50 EGLL 070550Z AUTO 18018KT 9999 OVC019 11/07 Q1003 20.7mph 11°C 7°C 11.0°C
07/01/23 05:20 EGLL 070520Z AUTO 19018KT 9999 OVC019 11/08 Q1004 20.7mph 11°C 8°C 11.4°C
07/01/23 04:50 EGLL 070450Z AUTO 19017KT 9999 BKN018 OVC022 11/08 Q1005 TEMPO RA BKN012 19.6mph 11°C 8°C 11.4°C